Orange, Connecticut
Current Conditions -  °F | °C
As of 7:53 PM on Tuesday 27 Jan 2015 (Local Time) from KHVN Reporting Station
Overcast Overcast  
Wind Chill:   Ceiling: 10000
Heat Index: 19°   Visibility: 10mi
Dew Point:   Wind: 14mph
Humidity: 59%   Direction: 340°NNW
Pressure: 29.71"   Gusts: 28mph
Location:  41.28°N, 73.03°W
Report Text: KHVN 280053Z 34012G24KT 10SM OVC100 M07/M14 A2971 RMK AO2 SLP059 T10721139 $
Loading
Personal Weather Stations






























Interactive Weather Map New forecast layout! Learn more

10-Day Weather Forecast

Advertisements
Track Severe Weather on mobile